sensor_id;sensor_type;location;lat;lon;timestamp;pressure;altitude;pressure_sealevel;temperature;humidity
55456;BME280;63021;52.836;6.376;2023-04-09T00:02:10;102795.50;;;9.08;71.90
55456;BME280;63021;52.836;6.376;2023-04-09T00:04:35;102797.28;;;9.08;71.45
55456;BME280;63021;52.836;6.376;2023-04-09T00:07:01;102793.03;;;9.05;71.71
55456;BME280;63021;52.836;6.376;2023-04-09T00:09:26;102793.78;;;9.07;71.46
55456;BME280;63021;52.836;6.376;2023-04-09T00:11:52;102808.78;;;9.08;71.28
55456;BME280;63021;52.836;6.376;2023-04-09T00:14:17;102805.34;;;9.06;70.97
55456;BME280;63021;52.836;6.376;2023-04-09T00:16:43;102807.34;;;9.02;71.75
55456;BME280;63021;52.836;6.376;2023-04-09T00:19:08;102802.78;;;9.05;71.36
55456;BME280;63021;52.836;6.376;2023-04-09T00:21:33;102800.31;;;9.01;71.29
55456;BME280;63021;52.836;6.376;2023-04-09T00:23:59;102795.44;;;8.94;71.52
55456;BME280;63021;52.836;6.376;2023-04-09T00:26:25;102808.28;;;9.01;71.20
55456;BME280;63021;52.836;6.376;2023-04-09T00:28:50;102805.63;;;9.01;71.67
55456;BME280;63021;52.836;6.376;2023-04-09T00:31:15;102791.72;;;8.96;71.18
55456;BME280;63021;52.836;6.376;2023-04-09T00:33:41;102798.75;;;8.97;71.74
55456;BME280;63021;52.836;6.376;2023-04-09T00:36:06;102801.31;;;8.99;71.65
55456;BME280;63021;52.836;6.376;2023-04-09T00:38:32;102779.69;;;8.91;71.53
55456;BME280;63021;52.836;6.376;2023-04-09T00:40:57;102794.31;;;8.98;71.82
55456;BME280;63021;52.836;6.376;2023-04-09T00:43:23;102787.38;;;8.95;71.89
55456;BME280;63021;52.836;6.376;2023-04-09T00:45:48;102787.38;;;8.95;71.29
55456;BME280;63021;52.836;6.376;2023-04-09T00:48:14;102778.63;;;8.93;71.52
55456;BME280;63021;52.836;6.376;2023-04-09T00:50:41;102780.44;;;8.93;71.42
55456;BME280;63021;52.836;6.376;2023-04-09T00:53:06;102781.38;;;8.92;71.36
55456;BME280;63021;52.836;6.376;2023-04-09T00:55:33;102784.91;;;8.92;71.53
55456;BME280;63021;52.836;6.376;2023-04-09T00:57:59;102786.69;;;8.92;72.23
55456;BME280;63021;52.836;6.376;2023-04-09T01:00:25;102766.06;;;8.81;71.49
55456;BME280;63021;52.836;6.376;2023-04-09T01:02:51;102777.19;;;8.88;72.29
55456;BME280;63021;52.836;6.376;2023-04-09T01:05:18;102775.41;;;8.88;71.67
55456;BME280;63021;52.836;6.376;2023-04-09T01:08:00;102777.19;;;8.88;72.24
55456;BME280;63021;52.836;6.376;2023-04-09T01:15:25;102771.81;;;8.73;72.30
55456;BME280;63021;52.836;6.376;2023-04-09T01:18:06;102761.38;;;8.70;72.03
55456;BME280;63021;52.836;6.376;2023-04-09T01:20:39;102775.25;;;8.75;72.29
55456;BME280;63021;52.836;6.376;2023-04-09T01:25:44;102768.56;;;8.68;72.10
55456;BME280;63021;52.836;6.376;2023-04-09T01:28:31;102762.28;;;8.69;72.83
55456;BME280;63021;52.836;6.376;2023-04-09T01:31:10;102756.31;;;8.65;72.43
55456;BME280;63021;52.836;6.376;2023-04-09T01:33:37;102773.00;;;8.67;72.62
55456;BME280;63021;52.836;6.376;2023-04-09T01:36:05;102764.28;;;8.65;72.41
55456;BME280;63021;52.836;6.376;2023-04-09T01:38:31;102768.56;;;8.68;72.62
55456;BME280;63021;52.836;6.376;2023-04-09T01:40:58;102759.81;;;8.66;72.28
55456;BME280;63021;52.836;6.376;2023-04-09T01:43:25;102761.63;;;8.65;72.27
55456;BME280;63021;52.836;6.376;2023-04-09T01:45:52;102757.25;;;8.64;72.70
55456;BME280;63021;52.836;6.376;2023-04-09T01:48:18;102756.50;;;8.62;72.74
55456;BME280;63021;52.836;6.376;2023-04-09T01:50:45;102755.72;;;8.60;73.51
55456;BME280;63021;52.836;6.376;2023-04-09T01:53:10;102756.59;;;8.61;73.51
55456;BME280;63021;52.836;6.376;2023-04-09T01:55:36;102757.63;;;8.58;72.90
55456;BME280;63021;52.836;6.376;2023-04-09T01:58:01;102761.03;;;8.60;72.86
55456;BME280;63021;52.836;6.376;2023-04-09T02:00:33;102732.63;;;8.46;73.09
55456;BME280;63021;52.836;6.376;2023-04-09T02:03:25;102754.03;;;8.59;73.08
55456;BME280;63021;52.836;6.376;2023-04-09T02:06:03;102761.19;;;8.57;73.28
55456;BME280;63021;52.836;6.376;2023-04-09T02:08:33;102754.44;;;8.52;73.45
55456;BME280;63021;52.836;6.376;2023-04-09T02:11:03;102762.22;;;8.55;73.16
55456;BME280;63021;52.836;6.376;2023-04-09T02:13:31;102759.66;;;8.53;73.63
55456;BME280;63021;52.836;6.376;2023-04-09T02:15:57;102755.22;;;8.54;73.09
55456;BME280;63021;52.836;6.376;2023-04-09T02:18:25;102748.19;;;8.53;73.67
55456;BME280;63021;52.836;6.376;2023-04-09T02:20:52;102753.50;;;8.53;72.84
55456;BME280;63021;52.836;6.376;2023-04-09T02:23:18;102747.50;;;8.49;73.66
55456;BME280;63021;52.836;6.376;2023-04-09T02:25:44;102743.06;;;8.49;73.29
55456;BME280;63021;52.836;6.376;2023-04-09T02:28:09;102736.13;;;8.47;73.73
55456;BME280;63021;52.836;6.376;2023-04-09T02:30:35;102744.19;;;8.45;73.17
55456;BME280;63021;52.836;6.376;2023-04-09T02:33:00;102744.78;;;8.51;73.22
55456;BME280;63021;52.836;6.376;2023-04-09T02:35:25;102740.50;;;8.48;73.61
55456;BME280;63021;52.836;6.376;2023-04-09T02:37:51;102742.13;;;8.51;74.04
55456;BME280;63021;52.836;6.376;2023-04-09T02:40:16;102739.47;;;8.51;73.76
55456;BME280;63021;52.836;6.376;2023-04-09T02:42:41;102724.75;;;8.45;73.81
55456;BME280;63021;52.836;6.376;2023-04-09T02:45:07;102726.25;;;8.49;73.79
55456;BME280;63021;52.836;6.376;2023-04-09T02:47:32;102736.13;;;8.47;72.92
55456;BME280;63021;52.836;6.376;2023-04-09T02:49:58;102728.25;;;8.45;73.39
55456;BME280;63021;52.836;6.376;2023-04-09T02:52:23;102730.91;;;8.45;73.71
55456;BME280;63021;52.836;6.376;2023-04-09T02:54:50;102723.94;;;8.43;73.92
55456;BME280;63021;52.836;6.376;2023-04-09T02:57:16;102730.91;;;8.45;73.71
55456;BME280;63021;52.836;6.376;2023-04-09T02:59:43;102714.25;;;8.42;73.28
55456;BME280;63021;52.836;6.376;2023-04-09T03:02:09;102719.50;;;8.43;73.30
55456;BME280;63021;52.836;6.376;2023-04-09T03:04:34;102715.31;;;8.39;73.96
55456;BME280;63021;52.836;6.376;2023-04-09T03:07:00;102709.81;;;8.42;73.54
55456;BME280;63021;52.836;6.376;2023-04-09T03:09:25;102714.34;;;8.40;73.89
55456;BME280;63021;52.836;6.376;2023-04-09T03:11:51;102715.31;;;8.39;73.75
55456;BME280;63021;52.836;6.376;2023-04-09T03:14:16;102708.28;;;8.38;74.00
55456;BME280;63021;52.836;6.376;2023-04-09T03:16:41;102713.75;;;8.35;73.82
55456;BME280;63021;52.836;6.376;2023-04-09T03:19:07;102718.03;;;8.38;73.60
55456;BME280;63021;52.836;6.376;2023-04-09T03:21:32;102710.00;;;8.39;72.94
55456;BME280;63021;52.836;6.376;2023-04-09T03:23:57;102714.34;;;8.40;73.54
55456;BME280;63021;52.836;6.376;2023-04-09T03:26:23;102706.28;;;8.42;72.98
55456;BME280;63021;52.836;6.376;2023-04-09T03:28:48;102719.66;;;8.40;73.83
55456;BME280;63021;52.836;6.376;2023-04-09T03:31:13;102697.13;;;8.31;73.61
55456;BME280;63021;52.836;6.376;2023-04-09T03:33:39;102711.69;;;8.40;73.31
55456;BME280;63021;52.836;6.376;2023-04-09T03:36:04;102711.78;;;8.39;74.02
55456;BME280;63021;52.836;6.376;2023-04-09T03:38:30;102717.88;;;8.41;73.31
55456;BME280;63021;52.836;6.376;2023-04-09T03:40:55;102708.19;;;8.40;73.40
55456;BME280;63021;52.836;6.376;2023-04-09T03:43:21;102706.38;;;8.40;73.71
55456;BME280;63021;52.836;6.376;2023-04-09T03:45:46;102700.41;;;8.37;73.67
55456;BME280;63021;52.836;6.376;2023-04-09T03:48:11;102704.69;;;8.39;73.74
55456;BME280;63021;52.836;6.376;2023-04-09T03:50:40;102704.78;;;8.38;74.25
55456;BME280;63021;52.836;6.376;2023-04-09T03:53:06;102706.56;;;8.37;73.87
55456;BME280;63021;52.836;6.376;2023-04-09T03:55:31;102706.63;;;8.36;73.85
55456;BME280;63021;52.836;6.376;2023-04-09T03:57:57;102699.56;;;8.36;74.35
55456;BME280;63021;52.836;6.376;2023-04-09T04:00:25;102702.34;;;8.33;74.49
55456;BME280;63021;52.836;6.376;2023-04-09T04:02:51;102700.59;;;8.33;74.09
55456;BME280;63021;52.836;6.376;2023-04-09T04:05:16;102705.88;;;8.33;74.19
55456;BME280;63021;52.836;6.376;2023-04-09T04:07:41;102705.00;;;8.33;73.89
55456;BME280;63021;52.836;6.376;2023-04-09T04:10:08;102699.03;;;8.29;74.49
55456;BME280;63021;52.836;6.376;2023-04-09T04:12:34;102698.19;;;8.29;73.93
55456;BME280;63021;52.836;6.376;2023-04-09T04:15:00;102700.75;;;8.30;73.91
55456;BME280;63021;52.836;6.376;2023-04-09T04:17:25;102697.22;;;8.30;74.51
55456;BME280;63021;52.836;6.376;2023-04-09T04:19:50;102698.25;;;8.27;74.70
55456;BME280;63021;52.836;6.376;2023-04-09T04:22:16;102703.50;;;8.29;74.72
55456;BME280;63021;52.836;6.376;2023-04-09T04:24:41;102699.31;;;8.25;74.82
55456;BME280;63021;52.836;6.376;2023-04-09T04:27:07;102694.09;;;8.23;74.73
55456;BME280;63021;52.836;6.376;2023-04-09T04:29:32;102701.09;;;8.24;74.80
55456;BME280;63021;52.836;6.376;2023-04-09T04:31:58;102703.72;;;8.24;74.06
55456;BME280;63021;52.836;6.376;2023-04-09T04:34:23;102700.25;;;8.24;74.25
55456;BME280;63021;52.836;6.376;2023-04-09T04:36:48;102709.13;;;8.23;74.12
55456;BME280;63021;52.836;6.376;2023-04-09T04:39:14;102704.69;;;8.23;74.49
55456;BME280;63021;52.836;6.376;2023-04-09T04:41:39;102705.72;;;8.21;73.98
55456;BME280;63021;52.836;6.376;2023-04-09T04:44:05;102710.94;;;8.22;74.16
55456;BME280;63021;52.836;6.376;2023-04-09T04:46:30;102705.91;;;8.18;74.17
55456;BME280;63021;52.836;6.376;2023-04-09T04:48:55;102710.16;;;8.20;74.42
55456;BME280;63021;52.836;6.376;2023-04-09T04:51:21;102701.69;;;8.13;74.05
55456;BME280;63021;52.836;6.376;2023-04-09T04:53:46;102713.84;;;8.18;73.70
55456;BME280;63021;52.836;6.376;2023-04-09T04:56:15;102706.03;;;8.14;74.63
55456;BME280;63021;52.836;6.376;2023-04-09T04:58:41;102702.63;;;8.12;74.39
55456;BME280;63021;52.836;6.376;2023-04-09T05:01:06;102711.53;;;8.11;73.67
55456;BME280;63021;52.836;6.376;2023-04-09T05:03:32;102715.97;;;8.11;74.15
55456;BME280;63021;52.836;6.376;2023-04-09T05:05:57;102712.47;;;8.10;74.48
55456;BME280;63021;52.836;6.376;2023-04-09T05:08:23;102717.94;;;8.07;74.09
55456;BME280;63021;52.836;6.376;2023-04-09T05:10:48;102707.66;;;8.01;73.97
55456;BME280;63021;52.836;6.376;2023-04-09T05:13:13;102706.81;;;8.01;74.14
55456;BME280;63021;52.836;6.376;2023-04-09T05:15:40;102717.94;;;8.07;73.70
55456;BME280;63021;52.836;6.376;2023-04-09T05:18:06;102702.38;;;8.01;74.06
55456;BME280;63021;52.836;6.376;2023-04-09T05:20:32;102706.66;;;8.04;74.21
55456;BME280;63021;52.836;6.376;2023-04-09T05:22:58;102718.91;;;8.06;74.01
55456;BME280;63021;52.836;6.376;2023-04-09T05:25:24;102710.16;;;8.04;74.23
55456;BME280;63021;52.836;6.376;2023-04-09T05:27:49;102715.44;;;8.04;74.23
55456;BME280;63021;52.836;6.376;2023-04-09T05:30:15;102723.31;;;8.06;74.07
55456;BME280;63021;52.836;6.376;2023-04-09T05:32:40;102711.78;;;8.07;74.52
55456;BME280;63021;52.836;6.376;2023-04-09T05:35:06;102706.47;;;8.07;74.05
55456;BME280;63021;52.836;6.376;2023-04-09T05:37:31;102703.25;;;8.02;74.28
55456;BME280;63021;52.836;6.376;2023-04-09T05:39:57;102698.69;;;8.04;74.21
55456;BME280;63021;52.836;6.376;2023-04-09T05:42:22;102713.41;;;8.09;74.02
55456;BME280;63021;52.836;6.376;2023-04-09T05:44:48;102699.53;;;8.04;74.24
55456;BME280;63021;52.836;6.376;2023-04-09T05:47:13;102694.84;;;8.09;74.77
55456;BME280;63021;52.836;6.376;2023-04-09T05:49:38;102708.94;;;8.10;73.89
55456;BME280;63021;52.836;6.376;2023-04-09T05:52:04;102696.78;;;8.06;73.83
55456;BME280;63021;52.836;6.376;2023-04-09T05:54:30;102701.97;;;8.09;73.97
55456;BME280;63021;52.836;6.376;2023-04-09T05:56:55;102712.47;;;8.10;74.08
55456;BME280;63021;52.836;6.376;2023-04-09T05:59:20;102699.31;;;8.09;73.92
55456;BME280;63021;52.836;6.376;2023-04-09T06:01:47;102704.44;;;8.12;74.60
55456;BME280;63021;52.836;6.376;2023-04-09T06:04:13;102706.22;;;8.11;73.84
55456;BME280;63021;52.836;6.376;2023-04-09T06:06:38;102721.91;;;8.16;74.52
55456;BME280;63021;52.836;6.376;2023-04-09T06:09:04;102705.28;;;8.12;73.99
55456;BME280;63021;52.836;6.376;2023-04-09T06:11:30;102716.50;;;8.18;74.43
55456;BME280;63021;52.836;6.376;2023-04-09T06:13:55;102719.06;;;8.19;73.58
55456;BME280;63021;52.836;6.376;2023-04-09T06:16:21;102711.97;;;8.20;74.45
55456;BME280;63021;52.836;6.376;2023-04-09T06:18:46;102710.31;;;8.17;74.28
55456;BME280;63021;52.836;6.376;2023-04-09T06:21:13;102712.88;;;8.19;74.13
55456;BME280;63021;52.836;6.376;2023-04-09T06:23:39;102721.81;;;8.18;74.27
55456;BME280;63021;52.836;6.376;2023-04-09T06:26:04;102714.78;;;8.17;74.39
55456;BME280;63021;52.836;6.376;2023-04-09T06:28:31;102719.06;;;8.19;74.16
55456;BME280;63021;52.836;6.376;2023-04-09T06:30:57;102730.53;;;8.20;74.23
55456;BME280;63021;52.836;6.376;2023-04-09T06:33:22;102717.34;;;8.18;73.85
55456;BME280;63021;52.836;6.376;2023-04-09T06:35:48;102717.25;;;8.20;73.97
55456;BME280;63021;52.836;6.376;2023-04-09T06:38:14;102716.25;;;8.22;73.34
55456;BME280;63021;52.836;6.376;2023-04-09T06:40:40;102719.06;;;8.19;73.48
55456;BME280;63021;52.836;6.376;2023-04-09T06:43:06;102725.06;;;8.23;73.81
55456;BME280;63021;52.836;6.376;2023-04-09T06:45:32;102721.56;;;8.22;73.34
55456;BME280;63021;52.836;6.376;2023-04-09T06:48:00;102722.41;;;8.23;73.86
55456;BME280;63021;52.836;6.376;2023-04-09T06:50:26;102721.56;;;8.22;73.42
55456;BME280;63021;52.836;6.376;2023-04-09T06:52:52;102720.63;;;8.23;73.18
55456;BME280;63021;52.836;6.376;2023-04-09T06:55:17;102727.38;;;8.29;73.80
55456;BME280;63021;52.836;6.376;2023-04-09T06:57:43;102719.47;;;8.27;73.82
55456;BME280;63021;52.836;6.376;2023-04-09T07:00:09;102728.13;;;8.31;73.15
55456;BME280;63021;52.836;6.376;2023-04-09T07:02:35;102723.94;;;8.27;73.38
55456;BME280;63021;52.836;6.376;2023-04-09T07:05:01;102729.06;;;8.30;73.47
55456;BME280;63021;52.836;6.376;2023-04-09T07:07:27;102725.47;;;8.31;73.53
55456;BME280;63021;52.836;6.376;2023-04-09T07:09:52;102732.44;;;8.33;73.08
55456;BME280;63021;52.836;6.376;2023-04-09T07:12:28;102728.06;;;8.32;72.69
55456;BME280;63021;52.836;6.376;2023-04-09T07:14:58;102727.44;;;8.27;72.74
55456;BME280;63021;52.836;6.376;2023-04-09T07:17:24;102741.31;;;8.32;73.14
55456;BME280;63021;52.836;6.376;2023-04-09T07:19:49;102735.84;;;8.36;73.15
55456;BME280;63021;52.836;6.376;2023-04-09T07:22:20;102729.16;;;8.28;72.78
55456;BME280;63021;52.836;6.376;2023-04-09T07:24:46;102737.72;;;8.33;72.77
55456;BME280;63021;52.836;6.376;2023-04-09T07:27:17;102735.09;;;8.33;72.46
55456;BME280;63021;52.836;6.376;2023-04-09T07:29:43;102750.47;;;8.43;72.36
55456;BME280;63021;52.836;6.376;2023-04-09T07:32:09;102746.88;;;8.44;72.11
55456;BME280;63021;52.836;6.376;2023-04-09T07:34:34;102746.88;;;8.44;71.96
55456;BME280;63021;52.836;6.376;2023-04-09T07:36:59;102750.25;;;8.47;72.76
55456;BME280;63021;52.836;6.376;2023-04-09T07:39:25;102732.72;;;8.45;72.37
55456;BME280;63021;52.836;6.376;2023-04-09T07:41:51;102746.38;;;8.53;72.56
55456;BME280;63021;52.836;6.376;2023-04-09T07:44:16;102744.44;;;8.57;72.12
55456;BME280;63021;52.836;6.376;2023-04-09T07:46:42;102744.25;;;8.60;72.52
55456;BME280;63021;52.836;6.376;2023-04-09T07:49:08;102739.78;;;8.60;72.19
55456;BME280;63021;52.836;6.376;2023-04-09T07:51:33;102746.81;;;8.61;72.17
55456;BME280;63021;52.836;6.376;2023-04-09T07:53:58;102745.97;;;8.61;72.17
55456;BME280;63021;52.836;6.376;2023-04-09T07:56:24;102745.00;;;8.62;71.80
55456;BME280;63021;52.836;6.376;2023-04-09T07:58:50;102744.16;;;8.61;72.30
55456;BME280;63021;52.836;6.376;2023-04-09T08:01:15;102751.84;;;8.66;71.56
55456;BME280;63021;52.836;6.376;2023-04-09T08:03:41;102751.69;;;8.69;72.10
55456;BME280;63021;52.836;6.376;2023-04-09T08:06:06;102749.81;;;8.71;71.88
55456;BME280;63021;52.836;6.376;2023-04-09T08:08:32;102747.34;;;8.68;71.32
55456;BME280;63021;52.836;6.376;2023-04-09T08:10:58;102742.88;;;8.69;71.53
55456;BME280;63021;52.836;6.376;2023-04-09T08:13:23;102751.53;;;8.72;71.30
55456;BME280;63021;52.836;6.376;2023-04-09T08:15:51;102746.22;;;8.72;71.19
55456;BME280;63021;52.836;6.376;2023-04-09T08:18:17;102745.94;;;8.77;71.18
55456;BME280;63021;52.836;6.376;2023-04-09T08:20:42;102753.63;;;8.81;71.02
55456;BME280;63021;52.836;6.376;2023-04-09T08:23:12;102749.78;;;8.87;71.39
55456;BME280;63021;52.836;6.376;2023-04-09T08:25:40;102744.28;;;8.90;70.53
55456;BME280;63021;52.836;6.376;2023-04-09T08:28:05;102733.94;;;8.86;70.62
55456;BME280;63021;52.836;6.376;2023-04-09T08:30:32;102747.25;;;9.00;71.31
55456;BME280;63021;52.836;6.376;2023-04-09T08:32:59;102745.19;;;9.05;70.95
55456;BME280;63021;52.836;6.376;2023-04-09T08:35:25;102747.22;;;9.16;71.41
55456;BME280;63021;52.836;6.376;2023-04-09T08:37:53;102750.28;;;9.24;70.68
55456;BME280;63021;52.836;6.376;2023-04-09T08:40:18;102742.78;;;9.31;70.68
55456;BME280;63021;52.836;6.376;2023-04-09T08:42:44;102746.81;;;9.38;70.87
55456;BME280;63021;52.836;6.376;2023-04-09T08:45:12;102749.28;;;9.41;70.28
55456;BME280;63021;52.836;6.376;2023-04-09T08:47:40;102749.47;;;9.52;70.48
55456;BME280;63021;52.836;6.376;2023-04-09T08:50:06;102738.84;;;9.52;70.14
55456;BME280;63021;52.836;6.376;2023-04-09T08:52:32;102743.41;;;9.65;70.08
55456;BME280;63021;52.836;6.376;2023-04-09T08:54:58;102749.19;;;9.71;70.10
55456;BME280;63021;52.836;6.376;2023-04-09T08:57:24;102740.94;;;9.76;70.34
55456;BME280;63021;52.836;6.376;2023-04-09T08:59:49;102746.63;;;9.84;70.09
55456;BME280;63021;52.836;6.376;2023-04-09T09:02:15;102742.75;;;9.90;69.70
55456;BME280;63021;52.836;6.376;2023-04-09T09:04:44;102742.16;;;9.99;70.02
55456;BME280;63021;52.836;6.376;2023-04-09T09:07:10;102745.41;;;10.04;70.01
55456;BME280;63021;52.836;6.376;2023-04-09T09:09:58;102736.81;;;10.14;69.77
55456;BME280;63021;52.836;6.376;2023-04-09T09:12:38;102731.88;;;10.22;70.03
55456;BME280;63021;52.836;6.376;2023-04-09T09:15:27;102727.66;;;10.32;69.87
55456;BME280;63021;52.836;6.376;2023-04-09T09:17:58;102730.50;;;10.44;69.60
55456;BME280;63021;52.836;6.376;2023-04-09T09:20:24;102724.69;;;10.51;69.14
55456;BME280;63021;52.836;6.376;2023-04-09T09:22:54;102719.50;;;10.63;69.52
55456;BME280;63021;52.836;6.376;2023-04-09T09:25:20;102713.59;;;10.72;69.13
55456;BME280;63021;52.836;6.376;2023-04-09T09:27:49;102708.56;;;10.80;69.08
55456;BME280;63021;52.836;6.376;2023-04-09T09:30:22;102719.16;;;10.95;68.39
55456;BME280;63021;52.836;6.376;2023-04-09T09:33:04;102713.75;;;11.09;68.38
55456;BME280;63021;52.836;6.376;2023-04-09T09:35:30;102714.09;;;11.17;68.29
55456;BME280;63021;52.836;6.376;2023-04-09T09:38:02;102708.97;;;11.27;68.05
55456;BME280;63021;52.836;6.376;2023-04-09T09:40:31;102709.53;;;11.45;68.35
55456;BME280;63021;52.836;6.376;2023-04-09T09:42:56;102708.44;;;11.60;68.26
55456;BME280;63021;52.836;6.376;2023-04-09T09:45:23;102711.84;;;11.75;67.82
55456;BME280;63021;52.836;6.376;2023-04-09T09:47:49;102704.78;;;11.87;67.02
55456;BME280;63021;52.836;6.376;2023-04-09T09:50:15;102711.41;;;11.94;66.91
55456;BME280;63021;52.836;6.376;2023-04-09T09:52:43;102709.06;;;12.03;67.00
55456;BME280;63021;52.836;6.376;2023-04-09T09:55:12;102706.25;;;12.17;66.38
55456;BME280;63021;52.836;6.376;2023-04-09T09:57:41;102692.97;;;12.28;66.36
55456;BME280;63021;52.836;6.376;2023-04-09T10:00:11;102704.44;;;12.42;65.92
55456;BME280;63021;52.836;6.376;2023-04-09T10:02:47;102693.69;;;12.55;66.09
55456;BME280;63021;52.836;6.376;2023-04-09T10:05:15;102684.25;;;12.62;65.73
55456;BME280;63021;52.836;6.376;2023-04-09T10:07:40;102698.78;;;12.82;65.06
55456;BME280;63021;52.836;6.376;2023-04-09T10:10:10;102697.63;;;12.97;65.27
55456;BME280;63021;52.836;6.376;2023-04-09T10:12:36;102686.84;;;13.10;64.86
55456;BME280;63021;52.836;6.376;2023-04-09T10:15:02;102679.69;;;13.22;63.61
55456;BME280;63021;52.836;6.376;2023-04-09T10:17:30;102680.78;;;13.31;63.47
55456;BME280;63021;52.836;6.376;2023-04-09T10:20:18;102688.97;;;13.41;63.23
55456;BME280;63021;52.836;6.376;2023-04-09T10:22:48;102679.00;;;13.43;63.07
55456;BME280;63021;52.836;6.376;2023-04-09T10:25:14;102669.25;;;13.42;62.19
55456;BME280;63021;52.836;6.376;2023-04-09T10:27:41;102670.00;;;13.44;62.24
55456;BME280;63021;52.836;6.376;2023-04-09T10:30:30;102655.16;;;13.51;62.13
55456;BME280;63021;52.836;6.376;2023-04-09T10:33:10;102660.28;;;13.65;61.76
55456;BME280;63021;52.836;6.376;2023-04-09T10:35:36;102658.44;;;13.77;61.69
55456;BME280;63021;52.836;6.376;2023-04-09T10:38:01;102651.22;;;13.89;61.32
55456;BME280;63021;52.836;6.376;2023-04-09T10:40:27;102654.13;;;13.97;60.92
55456;BME280;63021;52.836;6.376;2023-04-09T10:42:55;102648.41;;;14.02;60.75
55456;BME280;63021;52.836;6.376;2023-04-09T10:45:21;102632.84;;;13.96;60.14
55456;BME280;63021;52.836;6.376;2023-04-09T10:47:49;102637.56;;;14.03;59.37
55456;BME280;63021;52.836;6.376;2023-04-09T10:52:44;102640.97;;;14.06;59.31
55456;BME280;63021;52.836;6.376;2023-04-09T10:55:29;102637.53;;;14.15;59.04
55456;BME280;63021;52.836;6.376;2023-04-09T10:57:55;102647.53;;;14.13;59.18
55456;BME280;63021;52.836;6.376;2023-04-09T11:00:20;102639.75;;;14.10;58.79
55456;BME280;63021;52.836;6.376;2023-04-09T11:05:38;102634.72;;;14.16;59.21
55456;BME280;63021;52.836;6.376;2023-04-09T11:10:34;102632.91;;;14.17;58.65
55456;BME280;63021;52.836;6.376;2023-04-09T11:13:00;102618.47;;;14.08;58.89
55456;BME280;63021;52.836;6.376;2023-04-09T11:15:27;102621.22;;;14.18;59.15
55456;BME280;63021;52.836;6.376;2023-04-09T11:17:52;102613.19;;;14.18;58.67
55456;BME280;63021;52.836;6.376;2023-04-09T11:20:20;102620.22;;;14.19;58.29
55456;BME280;63021;52.836;6.376;2023-04-09T11:22:47;102609.38;;;14.20;57.90
55456;BME280;63021;52.836;6.376;2023-04-09T11:25:32;102594.19;;;14.21;58.48
55456;BME280;63021;52.836;6.376;2023-04-09T11:28:01;102606.03;;;14.40;58.97
55456;BME280;63021;52.836;6.376;2023-04-09T11:30:27;102601.78;;;14.58;59.06
55456;BME280;63021;52.836;6.376;2023-04-09T11:32:53;102588.69;;;14.76;58.39
55456;BME280;63021;52.836;6.376;2023-04-09T11:35:20;102599.25;;;14.99;58.22
55456;BME280;63021;52.836;6.376;2023-04-09T11:37:46;102602.28;;;15.15;57.63
55456;BME280;63021;52.836;6.376;2023-04-09T11:42:42;102597.34;;;15.51;57.41
55456;BME280;63021;52.836;6.376;2023-04-09T11:45:11;102590.59;;;15.57;56.35
55456;BME280;63021;52.836;6.376;2023-04-09T11:47:38;102585.81;;;15.61;55.85
55456;BME280;63021;52.836;6.376;2023-04-09T11:50:06;102569.38;;;15.54;55.69
55456;BME280;63021;52.836;6.376;2023-04-09T11:52:32;102567.84;;;15.61;55.59
55456;BME280;63021;52.836;6.376;2023-04-09T11:55:00;102584.28;;;15.77;55.13
55456;BME280;63021;52.836;6.376;2023-04-09T11:57:42;102577.69;;;15.82;54.67
55456;BME280;63021;52.836;6.376;2023-04-09T12:00:13;102569.22;;;15.96;54.97
55456;BME280;63021;52.836;6.376;2023-04-09T12:02:43;102563.44;;;16.10;54.77
55456;BME280;63021;52.836;6.376;2023-04-09T12:05:11;102572.88;;;16.24;53.21
55456;BME280;63021;52.836;6.376;2023-04-09T12:07:38;102571.47;;;16.40;53.32
55456;BME280;63021;52.836;6.376;2023-04-09T12:10:08;102574.00;;;16.41;51.74
55456;BME280;63021;52.836;6.376;2023-04-09T12:12:42;102567.94;;;16.30;51.67
55456;BME280;63021;52.836;6.376;2023-04-09T12:15:19;102561.97;;;16.26;52.17
55456;BME280;63021;52.836;6.376;2023-04-09T12:17:49;102562.13;;;16.34;52.27
55456;BME280;63021;52.836;6.376;2023-04-09T12:20:37;102572.72;;;16.36;50.98
55456;BME280;63021;52.836;6.376;2023-04-09T12:23:07;102568.63;;;16.22;50.66
55456;BME280;63021;52.836;6.376;2023-04-09T12:25:37;102571.34;;;16.12;50.54
55456;BME280;63021;52.836;6.376;2023-04-09T12:28:04;102563.69;;;16.07;50.87
55456;BME280;63021;52.836;6.376;2023-04-09T12:30:30;102558.31;;;16.07;50.91
55456;BME280;63021;52.836;6.376;2023-04-09T12:32:57;102562.13;;;16.15;50.99
55456;BME280;63021;52.836;6.376;2023-04-09T12:35:23;102559.16;;;16.27;51.27
55456;BME280;63021;52.836;6.376;2023-04-09T12:37:49;102561.53;;;16.40;50.77
55456;BME280;63021;52.836;6.376;2023-04-09T12:40:15;102566.31;;;16.56;50.55
55456;BME280;63021;52.836;6.376;2023-04-09T12:42:44;102561.53;;;16.60;50.34
55456;BME280;63021;52.836;6.376;2023-04-09T12:45:13;102561.22;;;16.63;50.57
55456;BME280;63021;52.836;6.376;2023-04-09T12:47:38;102565.19;;;16.59;50.19
55456;BME280;63021;52.836;6.376;2023-04-09T12:50:05;102552.88;;;16.66;50.87
55456;BME280;63021;52.836;6.376;2023-04-09T12:52:32;102549.28;;;16.85;50.74
55456;BME280;63021;52.836;6.376;2023-04-09T12:54:59;102550.94;;;17.06;50.02
55456;BME280;63021;52.836;6.376;2023-04-09T12:57:24;102545.53;;;17.16;49.45
55456;BME280;63021;52.836;6.376;2023-04-09T12:59:50;102535.63;;;17.06;49.25
55456;BME280;63021;52.836;6.376;2023-04-09T13:02:15;102528.47;;;16.97;48.77
55456;BME280;63021;52.836;6.376;2023-04-09T13:04:40;102536.66;;;17.05;47.36
55456;BME280;63021;52.836;6.376;2023-04-09T13:07:07;102542.47;;;16.91;47.55
55456;BME280;63021;52.836;6.376;2023-04-09T13:09:32;102545.88;;;16.83;48.13
55456;BME280;63021;52.836;6.376;2023-04-09T13:11:59;102534.16;;;16.84;48.04
55456;BME280;63021;52.836;6.376;2023-04-09T13:14:25;102542.31;;;17.02;48.03
55456;BME280;63021;52.836;6.376;2023-04-09T13:16:50;102542.72;;;17.07;47.52